sensor_id;sensor_type;location;lat;lon;timestamp;temperature;humidity
24518;DHT22;12678;51.336;12.406;2023-03-01T00:01:24;0.60;99.90
24518;DHT22;12678;51.336;12.406;2023-03-01T00:03:51;0.50;99.90
24518;DHT22;12678;51.336;12.406;2023-03-01T00:06:17;0.50;99.90
24518;DHT22;12678;51.336;12.406;2023-03-01T00:08:43;0.50;99.90
24518;DHT22;12678;51.336;12.406;2023-03-01T00:11:20;0.50;99.90
24518;DHT22;12678;51.336;12.406;2023-03-01T00:13:48;0.50;99.90
24518;DHT22;12678;51.336;12.406;2023-03-01T00:16:17;0.50;99.90
24518;DHT22;12678;51.336;12.406;2023-03-01T00:18:43;0.50;99.90
24518;DHT22;12678;51.336;12.406;2023-03-01T00:21:09;0.50;99.90
24518;DHT22;12678;51.336;12.406;2023-03-01T00:23:35;0.50;99.90
24518;DHT22;12678;51.336;12.406;2023-03-01T00:26:01;0.40;99.90
24518;DHT22;12678;51.336;12.406;2023-03-01T00:28:27;0.40;99.90
24518;DHT22;12678;51.336;12.406;2023-03-01T00:30:52;0.50;99.90
24518;DHT22;12678;51.336;12.406;2023-03-01T00:33:19;0.40;99.90
24518;DHT22;12678;51.336;12.406;2023-03-01T00:35:45;0.40;99.90
24518;DHT22;12678;51.336;12.406;2023-03-01T00:38:11;0.40;99.90
24518;DHT22;12678;51.336;12.406;2023-03-01T00:40:36;0.40;99.90
24518;DHT22;12678;51.336;12.406;2023-03-01T00:43:03;0.30;99.90
24518;DHT22;12678;51.336;12.406;2023-03-01T00:45:29;0.30;99.90
24518;DHT22;12678;51.336;12.406;2023-03-01T00:47:57;0.30;99.90
24518;DHT22;12678;51.336;12.406;2023-03-01T00:50:23;0.30;99.90
24518;DHT22;12678;51.336;12.406;2023-03-01T00:52:53;0.30;99.90
24518;DHT22;12678;51.336;12.406;2023-03-01T00:55:19;0.20;99.90
24518;DHT22;12678;51.336;12.406;2023-03-01T00:57:44;0.30;99.90
24518;DHT22;12678;51.336;12.406;2023-03-01T01:00:10;0.20;99.90
24518;DHT22;12678;51.336;12.406;2023-03-01T01:02:37;0.20;99.90
24518;DHT22;12678;51.336;12.406;2023-03-01T01:05:03;0.20;99.90
24518;DHT22;12678;51.336;12.406;2023-03-01T01:07:29;0.20;99.90
24518;DHT22;12678;51.336;12.406;2023-03-01T01:09:55;0.20;99.90
24518;DHT22;12678;51.336;12.406;2023-03-01T01:12:20;0.20;99.90
24518;DHT22;12678;51.336;12.406;2023-03-01T01:14:46;0.20;99.90
24518;DHT22;12678;51.336;12.406;2023-03-01T01:17:11;0.20;99.90
24518;DHT22;12678;51.336;12.406;2023-03-01T01:19:37;0.20;99.90
24518;DHT22;12678;51.336;12.406;2023-03-01T01:22:03;0.20;99.90
24518;DHT22;12678;51.336;12.406;2023-03-01T01:24:29;0.20;99.90
24518;DHT22;12678;51.336;12.406;2023-03-01T01:26:55;0.20;99.90
24518;DHT22;12678;51.336;12.406;2023-03-01T01:29:21;0.10;99.90
24518;DHT22;12678;51.336;12.406;2023-03-01T01:31:47;0.10;99.90
24518;DHT22;12678;51.336;12.406;2023-03-01T01:34:18;0.10;99.90
24518;DHT22;12678;51.336;12.406;2023-03-01T01:36:48;0.10;99.90
24518;DHT22;12678;51.336;12.406;2023-03-01T01:39:14;0.10;99.90
24518;DHT22;12678;51.336;12.406;2023-03-01T01:41:41;0.10;99.90
24518;DHT22;12678;51.336;12.406;2023-03-01T01:44:19;0.10;99.90
24518;DHT22;12678;51.336;12.406;2023-03-01T01:46:49;0.00;99.90
24518;DHT22;12678;51.336;12.406;2023-03-01T01:51:44;0.00;99.90
24518;DHT22;12678;51.336;12.406;2023-03-01T01:54:22;0.00;99.90
24518;DHT22;12678;51.336;12.406;2023-03-01T01:56:56;0.00;99.90
24518;DHT22;12678;51.336;12.406;2023-03-01T01:59:24;0.00;99.90
24518;DHT22;12678;51.336;12.406;2023-03-01T02:01:54;0.00;99.90
24518;DHT22;12678;51.336;12.406;2023-03-01T02:04:21;0.00;99.90
24518;DHT22;12678;51.336;12.406;2023-03-01T02:07:26;-0.10;99.90
24518;DHT22;12678;51.336;12.406;2023-03-01T02:09:47;-0.20;99.90
24518;DHT22;12678;51.336;12.406;2023-03-01T02:12:16;-0.20;99.90
24518;DHT22;12678;51.336;12.406;2023-03-01T02:14:43;-0.20;99.90
24518;DHT22;12678;51.336;12.406;2023-03-01T02:17:11;-0.20;99.90
24518;DHT22;12678;51.336;12.406;2023-03-01T02:19:40;-0.30;99.90
24518;DHT22;12678;51.336;12.406;2023-03-01T02:22:22;-0.30;99.90
24518;DHT22;12678;51.336;12.406;2023-03-01T02:27:23;-0.30;99.90
24518;DHT22;12678;51.336;12.406;2023-03-01T02:29:52;-0.40;99.90
24518;DHT22;12678;51.336;12.406;2023-03-01T02:32:18;-0.40;99.90
24518;DHT22;12678;51.336;12.406;2023-03-01T02:34:54;-0.40;99.90
24518;DHT22;12678;51.336;12.406;2023-03-01T02:37:21;-0.40;99.90
24518;DHT22;12678;51.336;12.406;2023-03-01T02:39:58;-0.40;99.90
24518;DHT22;12678;51.336;12.406;2023-03-01T02:42:33;-0.50;99.90
24518;DHT22;12678;51.336;12.406;2023-03-01T02:45:01;-0.50;99.90
24518;DHT22;12678;51.336;12.406;2023-03-01T02:47:26;-0.50;99.90
24518;DHT22;12678;51.336;12.406;2023-03-01T02:49:52;-0.50;99.90
24518;DHT22;12678;51.336;12.406;2023-03-01T02:52:41;-0.50;99.90
24518;DHT22;12678;51.336;12.406;2023-03-01T02:55:17;-0.50;99.90
24518;DHT22;12678;51.336;12.406;2023-03-01T02:57:45;-0.50;99.90
24518;DHT22;12678;51.336;12.406;2023-03-01T03:00:16;-0.50;99.90
24518;DHT22;12678;51.336;12.406;2023-03-01T03:02:46;-0.50;99.90
24518;DHT22;12678;51.336;12.406;2023-03-01T03:05:21;-0.50;99.90
24518;DHT22;12678;51.336;12.406;2023-03-01T03:07:48;-0.60;99.90
24518;DHT22;12678;51.336;12.406;2023-03-01T03:10:36;-0.60;99.90
24518;DHT22;12678;51.336;12.406;2023-03-01T03:13:05;-0.70;99.90
24518;DHT22;12678;51.336;12.406;2023-03-01T03:15:32;-0.70;99.90
24518;DHT22;12678;51.336;12.406;2023-03-01T03:18:02;-0.70;99.90
24518;DHT22;12678;51.336;12.406;2023-03-01T03:20:28;-0.60;99.90
24518;DHT22;12678;51.336;12.406;2023-03-01T03:22:56;-0.70;99.90
24518;DHT22;12678;51.336;12.406;2023-03-01T03:25:24;-0.70;99.90
24518;DHT22;12678;51.336;12.406;2023-03-01T03:27:51;-0.70;99.90
24518;DHT22;12678;51.336;12.406;2023-03-01T03:30:28;-0.70;99.90
24518;DHT22;12678;51.336;12.406;2023-03-01T03:32:54;-0.70;99.90
24518;DHT22;12678;51.336;12.406;2023-03-01T03:35:26;-0.70;99.90
24518;DHT22;12678;51.336;12.406;2023-03-01T03:37:54;-0.70;99.90
24518;DHT22;12678;51.336;12.406;2023-03-01T03:40:39;-0.70;99.90
24518;DHT22;12678;51.336;12.406;2023-03-01T03:43:08;-0.70;99.90
24518;DHT22;12678;51.336;12.406;2023-03-01T03:45:35;-0.70;99.90
24518;DHT22;12678;51.336;12.406;2023-03-01T03:48:01;-0.70;99.90
24518;DHT22;12678;51.336;12.406;2023-03-01T03:50:28;-0.60;99.90
24518;DHT22;12678;51.336;12.406;2023-03-01T03:52:53;-0.60;99.90
24518;DHT22;12678;51.336;12.406;2023-03-01T03:55:19;-0.60;99.90
24518;DHT22;12678;51.336;12.406;2023-03-01T03:57:46;-0.60;99.90
24518;DHT22;12678;51.336;12.406;2023-03-01T04:00:21;-0.70;99.90
24518;DHT22;12678;51.336;12.406;2023-03-01T04:02:47;-0.70;99.90
24518;DHT22;12678;51.336;12.406;2023-03-01T04:05:16;-0.70;99.90
24518;DHT22;12678;51.336;12.406;2023-03-01T04:07:42;-0.70;99.90
24518;DHT22;12678;51.336;12.406;2023-03-01T04:10:11;-0.70;99.90
24518;DHT22;12678;51.336;12.406;2023-03-01T04:12:37;-0.70;99.90
24518;DHT22;12678;51.336;12.406;2023-03-01T04:15:04;-0.70;99.90
24518;DHT22;12678;51.336;12.406;2023-03-01T04:17:50;-0.70;99.90
24518;DHT22;12678;51.336;12.406;2023-03-01T04:20:20;-0.70;99.90
24518;DHT22;12678;51.336;12.406;2023-03-01T04:22:58;-0.70;99.90
24518;DHT22;12678;51.336;12.406;2023-03-01T04:25:24;-0.80;99.90
24518;DHT22;12678;51.336;12.406;2023-03-01T04:27:50;-0.80;99.90
24518;DHT22;12678;51.336;12.406;2023-03-01T04:30:15;-0.80;99.90
24518;DHT22;12678;51.336;12.406;2023-03-01T04:32:42;-0.80;99.90
24518;DHT22;12678;51.336;12.406;2023-03-01T04:35:08;-0.80;99.90
24518;DHT22;12678;51.336;12.406;2023-03-01T04:37:34;-0.90;99.90
24518;DHT22;12678;51.336;12.406;2023-03-01T04:40:01;-0.80;99.90
24518;DHT22;12678;51.336;12.406;2023-03-01T04:42:33;-0.80;99.90
24518;DHT22;12678;51.336;12.406;2023-03-01T04:44:58;-0.90;99.90
24518;DHT22;12678;51.336;12.406;2023-03-01T04:47:24;-0.90;99.90
24518;DHT22;12678;51.336;12.406;2023-03-01T04:49:49;-0.90;99.90
24518;DHT22;12678;51.336;12.406;2023-03-01T04:52:15;-0.90;99.90
24518;DHT22;12678;51.336;12.406;2023-03-01T04:54:41;-0.90;99.90
24518;DHT22;12678;51.336;12.406;2023-03-01T04:57:06;-0.90;99.90
24518;DHT22;12678;51.336;12.406;2023-03-01T04:59:32;-1.00;99.90
24518;DHT22;12678;51.336;12.406;2023-03-01T05:01:58;-1.00;99.90
24518;DHT22;12678;51.336;12.406;2023-03-01T05:04:26;-1.00;99.90
24518;DHT22;12678;51.336;12.406;2023-03-01T05:06:51;-1.00;99.90
24518;DHT22;12678;51.336;12.406;2023-03-01T05:09:19;-1.00;99.90
24518;DHT22;12678;51.336;12.406;2023-03-01T05:11:44;-1.00;99.90
24518;DHT22;12678;51.336;12.406;2023-03-01T05:14:11;-1.00;99.90
24518;DHT22;12678;51.336;12.406;2023-03-01T05:16:37;-1.00;99.90
24518;DHT22;12678;51.336;12.406;2023-03-01T05:19:04;-1.00;99.90
24518;DHT22;12678;51.336;12.406;2023-03-01T05:21:37;-1.00;99.90
24518;DHT22;12678;51.336;12.406;2023-03-01T05:24:24;-0.90;99.90
24518;DHT22;12678;51.336;12.406;2023-03-01T05:26:50;-1.00;99.90
24518;DHT22;12678;51.336;12.406;2023-03-01T05:29:20;-1.10;99.90
24518;DHT22;12678;51.336;12.406;2023-03-01T05:31:51;-1.10;99.90
24518;DHT22;12678;51.336;12.406;2023-03-01T05:34:19;-1.10;99.90
24518;DHT22;12678;51.336;12.406;2023-03-01T05:36:45;-1.10;99.90
24518;DHT22;12678;51.336;12.406;2023-03-01T05:39:11;-1.00;99.90
24518;DHT22;12678;51.336;12.406;2023-03-01T05:41:37;-1.10;99.90
24518;DHT22;12678;51.336;12.406;2023-03-01T05:44:03;-1.10;99.90
24518;DHT22;12678;51.336;12.406;2023-03-01T05:46:30;-1.10;99.90
24518;DHT22;12678;51.336;12.406;2023-03-01T05:48:56;-1.20;99.90
24518;DHT22;12678;51.336;12.406;2023-03-01T05:51:21;-1.30;99.90
24518;DHT22;12678;51.336;12.406;2023-03-01T05:53:47;-1.40;99.90
24518;DHT22;12678;51.336;12.406;2023-03-01T05:56:14;-1.30;99.90
24518;DHT22;12678;51.336;12.406;2023-03-01T05:58:39;-1.30;99.90
24518;DHT22;12678;51.336;12.406;2023-03-01T06:01:05;-1.30;99.90
24518;DHT22;12678;51.336;12.406;2023-03-01T06:03:31;-1.30;99.90
24518;DHT22;12678;51.336;12.406;2023-03-01T06:05:57;-1.30;99.90
24518;DHT22;12678;51.336;12.406;2023-03-01T06:08:23;-1.20;99.90
24518;DHT22;12678;51.336;12.406;2023-03-01T06:10:51;-1.10;99.90
24518;DHT22;12678;51.336;12.406;2023-03-01T06:13:17;-1.20;99.90
24518;DHT22;12678;51.336;12.406;2023-03-01T06:15:43;-1.20;99.90
24518;DHT22;12678;51.336;12.406;2023-03-01T06:18:09;-1.20;99.90
24518;DHT22;12678;51.336;12.406;2023-03-01T06:20:34;-1.20;99.90
24518;DHT22;12678;51.336;12.406;2023-03-01T06:23:01;-1.10;99.90
24518;DHT22;12678;51.336;12.406;2023-03-01T06:25:27;-1.10;99.90
24518;DHT22;12678;51.336;12.406;2023-03-01T06:27:53;-1.20;99.90
24518;DHT22;12678;51.336;12.406;2023-03-01T06:30:20;-1.30;99.90
24518;DHT22;12678;51.336;12.406;2023-03-01T06:32:46;-1.20;99.90
24518;DHT22;12678;51.336;12.406;2023-03-01T06:35:14;-1.20;99.90
24518;DHT22;12678;51.336;12.406;2023-03-01T06:37:40;-1.20;99.90
24518;DHT22;12678;51.336;12.406;2023-03-01T06:40:08;-1.10;99.90
24518;DHT22;12678;51.336;12.406;2023-03-01T06:42:42;-1.10;99.90
24518;DHT22;12678;51.336;12.406;2023-03-01T06:45:08;-1.10;99.90
24518;DHT22;12678;51.336;12.406;2023-03-01T06:47:34;-1.00;99.90
24518;DHT22;12678;51.336;12.406;2023-03-01T06:50:01;-1.10;99.90
24518;DHT22;12678;51.336;12.406;2023-03-01T06:52:27;-1.20;99.90
24518;DHT22;12678;51.336;12.406;2023-03-01T06:54:52;-1.10;99.90
24518;DHT22;12678;51.336;12.406;2023-03-01T06:57:18;-1.10;99.90
24518;DHT22;12678;51.336;12.406;2023-03-01T06:59:44;-1.10;99.90
24518;DHT22;12678;51.336;12.406;2023-03-01T07:02:11;-1.00;99.90
24518;DHT22;12678;51.336;12.406;2023-03-01T07:04:37;-1.10;99.90
24518;DHT22;12678;51.336;12.406;2023-03-01T07:07:04;-1.10;99.90
24518;DHT22;12678;51.336;12.406;2023-03-01T07:09:29;-1.00;99.90
24518;DHT22;12678;51.336;12.406;2023-03-01T07:11:56;-0.90;99.90
24518;DHT22;12678;51.336;12.406;2023-03-01T07:14:21;-0.80;99.90
24518;DHT22;12678;51.336;12.406;2023-03-01T07:16:49;-0.70;99.90
24518;DHT22;12678;51.336;12.406;2023-03-01T07:19:15;-0.70;99.90
24518;DHT22;12678;51.336;12.406;2023-03-01T07:21:41;-0.60;99.90
24518;DHT22;12678;51.336;12.406;2023-03-01T07:24:07;-0.60;99.90
24518;DHT22;12678;51.336;12.406;2023-03-01T07:26:33;-0.50;99.90
24518;DHT22;12678;51.336;12.406;2023-03-01T07:29:00;-0.40;99.90
24518;DHT22;12678;51.336;12.406;2023-03-01T07:31:26;-0.30;99.90
24518;DHT22;12678;51.336;12.406;2023-03-01T07:33:55;-0.20;99.90
24518;DHT22;12678;51.336;12.406;2023-03-01T07:36:21;-0.20;99.90
24518;DHT22;12678;51.336;12.406;2023-03-01T07:38:47;-0.20;99.90
24518;DHT22;12678;51.336;12.406;2023-03-01T07:41:12;-0.10;99.90
24518;DHT22;12678;51.336;12.406;2023-03-01T07:43:38;-0.10;99.90
24518;DHT22;12678;51.336;12.406;2023-03-01T07:46:04;-0.10;99.90
24518;DHT22;12678;51.336;12.406;2023-03-01T07:48:31;0.00;99.90
24518;DHT22;12678;51.336;12.406;2023-03-01T07:51:01;0.10;99.90
24518;DHT22;12678;51.336;12.406;2023-03-01T07:53:28;0.20;99.90
24518;DHT22;12678;51.336;12.406;2023-03-01T07:56:04;0.20;99.90
24518;DHT22;12678;51.336;12.406;2023-03-01T07:58:30;0.20;99.90
24518;DHT22;12678;51.336;12.406;2023-03-01T08:00:55;0.30;99.90
24518;DHT22;12678;51.336;12.406;2023-03-01T08:03:21;0.40;99.90
24518;DHT22;12678;51.336;12.406;2023-03-01T08:05:46;0.30;99.90
24518;DHT22;12678;51.336;12.406;2023-03-01T08:08:12;0.40;99.90
24518;DHT22;12678;51.336;12.406;2023-03-01T08:10:39;0.50;99.90
24518;DHT22;12678;51.336;12.406;2023-03-01T08:13:04;0.60;99.90
24518;DHT22;12678;51.336;12.406;2023-03-01T08:15:30;0.60;99.90
24518;DHT22;12678;51.336;12.406;2023-03-01T08:17:55;0.50;99.90
24518;DHT22;12678;51.336;12.406;2023-03-01T08:20:21;0.60;99.90
24518;DHT22;12678;51.336;12.406;2023-03-01T08:22:47;0.80;99.90
24518;DHT22;12678;51.336;12.406;2023-03-01T08:25:12;0.90;99.90
24518;DHT22;12678;51.336;12.406;2023-03-01T08:27:38;1.00;99.90
24518;DHT22;12678;51.336;12.406;2023-03-01T08:30:05;1.10;99.90
24518;DHT22;12678;51.336;12.406;2023-03-01T08:32:36;1.20;99.90
24518;DHT22;12678;51.336;12.406;2023-03-01T08:35:02;1.20;99.90
24518;DHT22;12678;51.336;12.406;2023-03-01T08:37:27;1.10;99.90
24518;DHT22;12678;51.336;12.406;2023-03-01T08:39:56;1.20;99.90
24518;DHT22;12678;51.336;12.406;2023-03-01T08:42:22;1.40;99.90
24518;DHT22;12678;51.336;12.406;2023-03-01T08:44:47;1.50;99.90
24518;DHT22;12678;51.336;12.406;2023-03-01T08:47:14;1.60;99.90
24518;DHT22;12678;51.336;12.406;2023-03-01T08:49:39;1.60;99.90
24518;DHT22;12678;51.336;12.406;2023-03-01T08:52:05;1.70;99.90
24518;DHT22;12678;51.336;12.406;2023-03-01T08:54:52;1.70;99.90
24518;DHT22;12678;51.336;12.406;2023-03-01T08:57:19;1.80;99.90
24518;DHT22;12678;51.336;12.406;2023-03-01T08:59:44;1.80;99.90
24518;DHT22;12678;51.336;12.406;2023-03-01T09:02:16;1.90;99.90
24518;DHT22;12678;51.336;12.406;2023-03-01T09:04:42;2.00;99.90
24518;DHT22;12678;51.336;12.406;2023-03-01T09:07:08;2.00;99.90
24518;DHT22;12678;51.336;12.406;2023-03-01T09:09:34;2.00;99.90
24518;DHT22;12678;51.336;12.406;2023-03-01T09:12:00;2.00;99.90
24518;DHT22;12678;51.336;12.406;2023-03-01T09:14:26;2.00;99.90
24518;DHT22;12678;51.336;12.406;2023-03-01T09:16:51;2.20;99.90
24518;DHT22;12678;51.336;12.406;2023-03-01T09:19:17;2.20;99.90
24518;DHT22;12678;51.336;12.406;2023-03-01T09:21:43;2.20;99.90
24518;DHT22;12678;51.336;12.406;2023-03-01T09:24:18;2.20;99.90
24518;DHT22;12678;51.336;12.406;2023-03-01T09:26:44;2.20;99.90
24518;DHT22;12678;51.336;12.406;2023-03-01T09:29:12;2.20;99.90
24518;DHT22;12678;51.336;12.406;2023-03-01T09:31:38;2.30;99.90
24518;DHT22;12678;51.336;12.406;2023-03-01T09:34:04;2.30;99.90
24518;DHT22;12678;51.336;12.406;2023-03-01T09:36:30;2.30;99.90
24518;DHT22;12678;51.336;12.406;2023-03-01T09:38:57;2.40;99.90
24518;DHT22;12678;51.336;12.406;2023-03-01T09:46:43;2.70;99.90
24518;DHT22;12678;51.336;12.406;2023-03-01T09:49:50;2.80;99.90
24518;DHT22;12678;51.336;12.406;2023-03-01T09:52:40;2.90;99.90
24518;DHT22;12678;51.336;12.406;2023-03-01T09:55:15;3.00;99.90
24518;DHT22;12678;51.336;12.406;2023-03-01T09:57:47;2.90;99.90
24518;DHT22;12678;51.336;12.406;2023-03-01T10:08:24;3.00;99.90
24518;DHT22;12678;51.336;12.406;2023-03-01T10:10:52;3.00;99.90
24518;DHT22;12678;51.336;12.406;2023-03-01T10:16:21;3.20;99.90
24518;DHT22;12678;51.336;12.406;2023-03-01T10:18:53;3.20;99.90
24518;DHT22;12678;51.336;12.406;2023-03-01T10:21:20;3.30;99.90
24518;DHT22;12678;51.336;12.406;2023-03-01T10:23:49;3.20;99.90
24518;DHT22;12678;51.336;12.406;2023-03-01T10:26:48;3.30;99.90
24518;DHT22;12678;51.336;12.406;2023-03-01T10:29:21;3.30;99.90
24518;DHT22;12678;51.336;12.406;2023-03-01T10:31:51;3.30;99.90
24518;DHT22;12678;51.336;12.406;2023-03-01T10:34:31;3.40;99.90
24518;DHT22;12678;51.336;12.406;2023-03-01T10:37:14;3.40;99.90
24518;DHT22;12678;51.336;12.406;2023-03-01T10:42:28;3.40;99.90
24518;DHT22;12678;51.336;12.406;2023-03-01T10:44:54;3.50;99.90
24518;DHT22;12678;51.336;12.406;2023-03-01T10:47:25;3.60;99.90
24518;DHT22;12678;51.336;12.406;2023-03-01T10:49:56;3.50;99.90
24518;DHT22;12678;51.336;12.406;2023-03-01T10:52:41;3.60;99.90
24518;DHT22;12678;51.336;12.406;2023-03-01T10:57:39;3.60;99.90
24518;DHT22;12678;51.336;12.406;2023-03-01T11:00:24;3.70;99.90
24518;DHT22;12678;51.336;12.406;2023-03-01T11:05:24;3.80;99.90
24518;DHT22;12678;51.336;12.406;2023-03-01T11:07:55;3.90;99.90
24518;DHT22;12678;51.336;12.406;2023-03-01T11:10:33;3.90;99.90
24518;DHT22;12678;51.336;12.406;2023-03-01T11:13:18;4.00;99.90
24518;DHT22;12678;51.336;12.406;2023-03-01T11:15:59;4.10;99.90
24518;DHT22;12678;51.336;12.406;2023-03-01T11:18:26;4.20;99.90
24518;DHT22;12678;51.336;12.406;2023-03-01T11:20:53;4.30;99.90
24518;DHT22;12678;51.336;12.406;2023-03-01T11:23:21;4.30;99.90
24518;DHT22;12678;51.336;12.406;2023-03-01T11:26:02;4.30;99.90
24518;DHT22;12678;51.336;12.406;2023-03-01T11:28:30;4.20;99.90
24518;DHT22;12678;51.336;12.406;2023-03-01T11:31:01;4.10;99.90
24518;DHT22;12678;51.336;12.406;2023-03-01T11:38:57;4.20;99.90
24518;DHT22;12678;51.336;12.406;2023-03-01T11:41:31;4.20;99.90
24518;DHT22;12678;51.336;12.406;2023-03-01T11:51:41;4.10;99.90
24518;DHT22;12678;51.336;12.406;2023-03-01T11:54:27;4.20;99.90
24518;DHT22;12678;51.336;12.406;2023-03-01T11:59:58;4.30;99.90
24518;DHT22;12678;51.336;12.406;2023-03-01T12:05:18;4.30;99.90
24518;DHT22;12678;51.336;12.406;2023-03-01T12:11:02;4.40;99.90
24518;DHT22;12678;51.336;12.406;2023-03-01T12:14:05;4.40;99.90
24518;DHT22;12678;51.336;12.406;2023-03-01T12:32:52;4.50;99.90
24518;DHT22;12678;51.336;12.406;2023-03-01T12:41:20;4.60;99.90
24518;DHT22;12678;51.336;12.406;2023-03-01T12:44:19;4.70;99.90
24518;DHT22;12678;51.336;12.406;2023-03-01T12:47:06;4.80;99.90
24518;DHT22;12678;51.336;12.406;2023-03-01T12:50:10;4.70;99.90
24518;DHT22;12678;51.336;12.406;2023-03-01T12:53:00;4.80;99.90
24518;DHT22;12678;51.336;12.406;2023-03-01T12:55:36;4.90;99.90
24518;DHT22;12678;51.336;12.406;2023-03-01T13:11:48;5.20;99.90
24518;DHT22;12678;51.336;12.406;2023-03-01T13:16:45;5.10;99.90
24518;DHT22;12678;51.336;12.406;2023-03-01T13:19:22;5.20;99.90
24518;DHT22;12678;51.336;12.406;2023-03-01T13:21:50;5.20;99.90
24518;DHT22;12678;51.336;12.406;2023-03-01T13:24:36;5.30;99.90
24518;DHT22;12678;51.336;12.406;2023-03-01T13:29:53;5.30;99.90
24518;DHT22;12678;51.336;12.406;2023-03-01T13:32:27;5.20;99.90
24518;DHT22;12678;51.336;12.406;2023-03-01T13:37:51;5.30;99.90
24518;DHT22;12678;51.336;12.406;2023-03-01T13:42:48;5.40;99.90
24518;DHT22;12678;51.336;12.406;2023-03-01T13:45:23;5.50;99.90
24518;DHT22;12678;51.336;12.406;2023-03-01T13:47:58;5.50;99.90
24518;DHT22;12678;51.336;12.406;2023-03-01T13:50:27;5.50;99.90
24518;DHT22;12678;51.336;12.406;2023-03-01T13:53:02;5.50;99.90
24518;DHT22;12678;51.336;12.406;2023-03-01T13:55:44;5.50;99.90
24518;DHT22;12678;51.336;12.406;2023-03-01T13:58:24;5.60;99.90
24518;DHT22;12678;51.336;12.406;2023-03-01T14:01:04;5.60;99.90
24518;DHT22;12678;51.336;12.406;2023-03-01T14:03:31;5.70;99.90
24518;DHT22;12678;51.336;12.406;2023-03-01T14:06:00;5.70;99.90
24518;DHT22;12678;51.336;12.406;2023-03-01T14:08:28;5.70;99.90
24518;DHT22;12678;51.336;12.406;2023-03-01T14:13:48;5.80;99.90
24518;DHT22;12678;51.336;12.406;2023-03-01T14:19:14;5.80;99.90
24518;DHT22;12678;51.336;12.406;2023-03-01T14:21:46;5.80;98.90
24518;DHT22;12678;51.336;12.406;2023-03-01T14:24:18;5.80;98.00
24518;DHT22;12678;51.336;12.406;2023-03-01T14:26:45;5.80;97.80
24518;DHT22;12678;51.336;12.406;2023-03-01T14:29:34;5.90;97.20
24518;DHT22;12678;51.336;12.406;2023-03-01T14:32:19;6.00;95.40
24518;DHT22;12678;51.336;12.406;2023-03-01T14:34:48;5.90;94.30
24518;DHT22;12678;51.336;12.406;2023-03-01T14:37:23;6.00;93.90
24518;DHT22;12678;51.336;12.406;2023-03-01T14:39:50;5.90;93.40
24518;DHT22;12678;51.336;12.406;2023-03-01T14:42:16;6.00;93.60
24518;DHT22;12678;51.336;12.406;2023-03-01T14:44:46;6.00;94.00
24518;DHT22;12678;51.336;12.406;2023-03-01T14:47:19;6.00;93.10
24518;DHT22;12678;51.336;12.406;2023-03-01T14:49:51;6.00;92.90
24518;DHT22;12678;51.336;12.406;2023-03-01T14:52:25;6.00;93.10
24518;DHT22;12678;51.336;12.406;2023-03-01T14:54:54;6.00;93.10
24518;DHT22;12678;51.336;12.406;2023-03-01T14:57:26;6.00;93.30
24518;DHT22;12678;51.336;12.406;2023-03-01T15:00:00;6.00;92.90
24518;DHT22;12678;51.336;12.406;2023-03-01T15:02:30;6.10;92.80
24518;DHT22;12678;51.336;12.406;2023-03-01T15:04:58;6.10;92.50
24518;DHT22;12678;51.336;12.406;2023-03-01T15:07:35;6.10;92.60
24518;DHT22;12678;51.336;12.406;2023-03-01T15:10:05;6.10;92.40
24518;DHT22;12678;51.336;12.406;2023-03-01T15:14:57;6.10;92.40
24518;DHT22;12678;51.336;12.406;2023-03-01T15:17:33;6.10;92.40
24518;DHT22;12678;51.336;12.406;2023-03-01T15:20:01;6.10;92.60
24518;DHT22;12678;51.336;12.406;2023-03-01T15:22:27;6.10;92.40
24518;DHT22;12678;51.336;12.406;2023-03-01T15:24:54;6.10;92.10
24518;DHT22;12678;51.336;12.406;2023-03-01T15:27:22;6.10;92.50
24518;DHT22;12678;51.336;12.406;2023-03-01T15:32:34;6.10;92.20
24518;DHT22;12678;51.336;12.406;2023-03-01T15:35:22;6.10;92.30
24518;DHT22;12678;51.336;12.406;2023-03-01T15:37:48;6.10;91.70
24518;DHT22;12678;51.336;12.406;2023-03-01T15:40:26;6.10;92.30
24518;DHT22;12678;51.336;12.406;2023-03-01T15:42:59;6.10;92.40
24518;DHT22;12678;51.336;12.406;2023-03-01T15:45:27;6.10;92.10
24518;DHT22;12678;51.336;12.406;2023-03-01T15:47:57;6.10;91.70
24518;DHT22;12678;51.336;12.406;2023-03-01T15:50:28;6.00;91.90
24518;DHT22;12678;51.336;12.406;2023-03-01T15:52:55;6.00;92.10
24518;DHT22;12678;51.336;12.406;2023-03-01T15:55:26;6.00;91.80
24518;DHT22;12678;51.336;12.406;2023-03-01T15:58:10;5.90;91.80
24518;DHT22;12678;51.336;12.406;2023-03-01T16:00:37;5.90;91.70
24518;DHT22;12678;51.336;12.406;2023-03-01T16:03:04;5.90;91.90
24518;DHT22;12678;51.336;12.406;2023-03-01T16:05:34;5.90;92.20
24518;DHT22;12678;51.336;12.406;2023-03-01T16:08:00;5.80;92.40
24518;DHT22;12678;51.336;12.406;2023-03-01T16:10:27;5.80;92.50
24518;DHT22;12678;51.336;12.406;2023-03-01T16:12:53;5.80;92.40
24518;DHT22;12678;51.336;12.406;2023-03-01T16:15:20;5.80;92.60
24518;DHT22;12678;51.336;12.406;2023-03-01T16:17:46;5.70;92.50
24518;DHT22;12678;51.336;12.406;2023-03-01T16:20:12;5.70;92.80
24518;DHT22;12678;51.336;12.406;2023-03-01T16:22:41;5.70;92.90
24518;DHT22;12678;51.336;12.406;2023-03-01T16:25:09;5.70;93.20
24518;DHT22;12678;51.336;12.406;2023-03-01T16:27:35;5.60;93.30
24518;DHT22;12678;51.336;12.406;2023-03-01T16:30:01;5.60;93.40
24518;DHT22;12678;51.336;12.406;2023-03-01T16:32:26;5.60;93.30
24518;DHT22;12678;51.336;12.406;2023-03-01T16:34:52;5.50;93.50
24518;DHT22;12678;51.336;12.406;2023-03-01T16:37:17;5.50;93.70
24518;DHT22;12678;51.336;12.406;2023-03-01T16:39:44;5.60;93.80
24518;DHT22;12678;51.336;12.406;2023-03-01T16:42:10;5.50;94.00
24518;DHT22;12678;51.336;12.406;2023-03-01T16:44:35;5.50;94.00
24518;DHT22;12678;51.336;12.406;2023-03-01T16:47:01;5.40;94.20
24518;DHT22;12678;51.336;12.406;2023-03-01T16:49:26;5.40;94.60
24518;DHT22;12678;51.336;12.406;2023-03-01T16:51:53;5.30;94.60
24518;DHT22;12678;51.336;12.406;2023-03-01T16:54:19;5.30;94.90
24518;DHT22;12678;51.336;12.406;2023-03-01T16:56:45;5.20;95.10
24518;DHT22;12678;51.336;12.406;2023-03-01T16:59:10;5.20;95.40
24518;DHT22;12678;51.336;12.406;2023-03-01T17:01:36;5.10;95.60
24518;DHT22;12678;51.336;12.406;2023-03-01T17:04:06;5.10;95.70
24518;DHT22;12678;51.336;12.406;2023-03-01T17:06:32;5.10;96.00
24518;DHT22;12678;51.336;12.406;2023-03-01T17:08:58;5.10;96.10
24518;DHT22;12678;51.336;12.406;2023-03-01T17:11:25;5.00;96.10
24518;DHT22;12678;51.336;12.406;2023-03-01T17:13:50;5.00;96.40
24518;DHT22;12678;51.336;12.406;2023-03-01T17:16:18;4.90;96.60
24518;DHT22;12678;51.336;12.406;2023-03-01T17:18:45;4.90;96.90
24518;DHT22;12678;51.336;12.406;2023-03-01T17:21:11;4.80;97.00
24518;DHT22;12678;51.336;12.406;2023-03-01T17:23:39;4.80;97.10
24518;DHT22;12678;51.336;12.406;2023-03-01T17:26:06;4.80;97.30
24518;DHT22;12678;51.336;12.406;2023-03-01T17:28:33;4.80;97.50